Logo AVAMET
Benvolgut visitant, si us plau, ingressa Recuperar contrasenya

València Penya-roja

Dades diàries. Acumulats / Últims 30 dies disponibles

Data Temperatura (°C) Humitat rel. (%) Pressió rel. (hPa) Vent (km/h) Precipitació
Mínima Mitjana Màxima Amplitud
tèrmica
Mínima Mitjana Màxima Mínima Mitjana Màxima Predom. Mitjana Ràfega
màxima
Total
(mm)
Índex-n
Mínima Mitjana Màxima Mínima Mitjana Màxima n
0 a 1
P0 max
mm 5'
Dades mensuals acumulades fins l'últim dia disponible
05/2019 11,1 15,7 21,3 18,7 18,1 22,0 32,0 20,9 23 66 98 995 1.008 1.019   9,1 64,8 9,9
Dades anuals acumulades fins l'últim dia disponible
2019 2,7 10,9 21,3 14,6 13,2 19,1 32,0 29,3 15 59 99 987 1.013 1.030   9,0 70,9 93,4
Últims 30 dies disponibles
21-05-2019 16,7     18,2     21,0 4,3 62 73 83 1.008 1.009 1.012 SSE 7,5 29,5 4,2
20-05-2019 15,3     18,3     20,6 5,3 42 59 79 1.005 1.007 1.008 S 9,7 33,1 0,0
19-05-2019 14,6     18,2     24,2 9,6 23 55 75 1.003 1.004 1.007 SO 6,5 28,1 0,0
18-05-2019 14,9     17,3     18,9 4,0 41 56 74 1.002 1.003 1.005 SSE 5,9 25,6 0,3 0,10
17-05-2019 16,5     19,9     23,3 6,8 28 46 82 995 999 1.004 ONO 18,3 60,1 0,0
16-05-2019 16,9     18,5     21,7 4,8 57 71 80 999 1.005 1.010 E 8,5 33,1 0,0
15-05-2019 16,6     18,6     20,5 3,9 70 75 81 1.005 1.006 1.010 NE 8,1 43,9 0,0
14-05-2019 15,2     19,1     23,5 8,3 43 67 83 1.007 1.012 1.016 ESE 8,1 35,6 0,0
13-05-2019 16,9     19,2     22,4 5,5 41 73 92 1.013 1.014 1.016 ENE 8,0 27,0 0,0
12-05-2019 16,6     19,3     21,8 5,2 34 66 83 1.013 1.017 1.019 ESE 6,0 30,6 0,0
11-05-2019 18,2     20,4     23,1 4,9 58 74 84 1.008 1.012 1.018 ENE 7,5 29,5 0,0
10-05-2019 21,3     25,7     32,0 10,7 23 49 69 1.005 1.006 1.008 WNW 15,6 42,8 0,0
09-05-2019 19,8     23,6     29,2 9,4 24 45 62 1.004 1.006 1.008 WNW 17,6 49,0 0,0
08-05-2019 15,6     22,1     27,9 12,3 32 60 98 1.003 1.005 1.009 WNW 18,0 64,8 0,0
07-05-2019 14,2     17,2     20,0 5,8 72 81 93 1.008 1.011 1.013 ENE 5,6 28,1 0,0
06-05-2019 12,5     15,8     18,1 5,6 53 71 84 1.011 1.012 1.014 ENE 7,2 27,0 0,0
05-05-2019 14,9     16,6     18,6 3,7 25 56 80 1.006 1.009 1.011 E 7,8 31,7 0,0
04-05-2019 11,1     15,5     19,0 7,9 41 65 84 1.004 1.006 1.008 S 8,8 34,2 0,0
03-05-2019 13,1     15,3     18,3 5,2 64 77 83 1.005 1.007 1.009 ENE 5,6 36,7 2,2 0,52 0,60
02-05-2019 15,3     16,9     19,8 4,5 54 80 95 1.008 1.009 1.011 E 4,9 20,9 2,2 0,35 0,70
01-05-2019 14,2     16,6     18,9 4,7 69 82 90 1.007 1.009 1.011 E 6,3 28,1 1,0 0,10
30-04-2019 14,1     16,7     19,0 4,9 70 79 87 1.010 1.011 1.013 E 7,0 28,1 0,0
29-04-2019 13,9     16,1     18,8 4,9 69 78 84 1.012 1.013 1.015 E 5,8 24,5 0,0
28-04-2019 14,0     16,6     20,1 6,1 50 70 86 1.014 1.016 1.019 ENE 6,3 34,2 0,0
27-04-2019 11,8     16,9     20,7 8,9 33 59 84 1.017 1.019 1.021 ESE 5,7 25,6 0,0
26-04-2019 12,5     16,8     21,6 9,1 30 51 70 1.011 1.015 1.019 WNW 12,8 47,9 0,0
25-04-2019 16,0     18,1     21,4 5,4 33 53 70 1.002 1.006 1.011 WNW 19,0 56,2 0,0
24-04-2019 11,2     15,9     20,5 9,3 34 54 67 998 1.002 1.005 WSW 16,9 42,8 0,0
23-04-2019 12,2     15,6     21,2 9,0 41 71 92 992 993 997 WNW 9,9 49,0 0,6
22-04-2019 13,3     15,2     17,4 4,1 67 76 88 994 996 1.001 NNW 6,1 42,8 2,5 0,09 0,20
Últims 13 mesos disponibles
04/2019 10,2 12,7 16,0 15,8 15,6 19,5 29,6 19,4 40 64 96 993 1.007 1.019 NE 11,7 68,4 62,2
03/2019 9,1 11,4 16,2 15,2 13,8 19,5 29,2 20,1 40 57 83 1.004 1.017 1.024 NNE 7,8 64,8 19,1
02/2019 2,7 7,7 12,3 12,1 13,2 17,8 23,8 21,1 27 60 73 988 1.019 1.028 WNW 6,3 42,8 0,0
01/2019 2,7 8,2 13,6 12,3 13,2 17,4 21,3 18,6 33 52 72 996 1.013 1.024 O 9,7 70,9 0,7
12/2018 6,8 10,5 14,4 14,0 14,5 19,0 24,4 17,6 45 62 78 1.002 1.019 1.025 ONO 8,2 58,7 8,6
11/2018 8,5 12,7 16,7 15,5 15,4 19,2 23,8 15,3 43 67 96 996 1.009 1.017 ONO 9,9 80,6 141,0
10/2018 8,4 16,3 20,7 19,4 14,1 22,9 27,4 19,0 37 67 86 994 1.008 1.019 NNO 7,6 79,6 175,7
09/2018 17,6 21,7 24,4 24,8 25,0 27,8 31,2 13,6 48 74 85 1.006 1.013 1.022 NE 6,3 42,8 149,3
08/2018 22,6 24,6 26,6 27,2 27,6 29,9 35,2 12,6 56 69 79 1.008 1.014 1.021 ENE 7,4 52,6 21,7
07/2018 23,0 24,1 25,4 26,6 27,3 29,4 35,6 12,6 46 69 79 1.010 1.015 1.020 ENE 7,7 55,1 2,2
06/2018 15,9 20,6 23,5 23,6 22,8 26,5 30,0 14,1 46 65 79 1.010 1.015 1.021 ENE 7,8 47,9 94,0
05/2018 10,5 16,3 19,6 19,2 16,7 22,7 27,6 17,1 42 64 82 1.010 1.015 1.018 ENE 7,4 54,0 16,1
04/2018 10,2 13,6 17,1 16,7 14,4 20,1 25,7 15,5 43 62 85 996 1.014 1.025 NO 11,1 78,5 13,4
Tots els anys disponibles
2018 3,9 15,9 26,6 18,9 9,3 22,5 35,6 31,7 33 64 96 992 1.014 1.035 E 9,1 92,9 720,1
2017 2,4 15,8 26,3 19,0 10,2 22,6 36,1 33,7 52 63 71 1.016 1.019 1.023 N 8,4 90,7 321,7
2016 4,3 16,2 26,7 19,0 11,4 23,2 35,8 31,5 51 65 74 1.015 1.019 1.031 N 8,3 100,0 601,3
Temperatura (°C)
Humitat relativa (%)
Velocitat del vent i ràfega màxima (km/h)
Direcció del vent (°)
Precipitació (mm)
Nota sobre les dades: s'avisa a l'usuari de la provisionalitat i no oficialitat d'aquestes dades
Logo AVAMET blanc
Web allotjada a Sollutia
Llicència de Creative CommonsLa web d'AVAMET i els seus continguts estan subjectes a una llicència de
Reconeixement - No Comercial - Compartir igual
Properes estacions: Altea - Club Nàutic d'Altea (Soci), Ontinyent - El Pilar (Soci), Ares del Maestrat (Ajuntament Soci), Catadau - L'Altet (Inforatge)     - - - - -      Últimes estacions: Jacarilla - centro (MeteOrihuela), Elx - Maitino/Vallverda/Velarde/Matola/Ferriol (Soci TiempoElche.com), Orihuela - Playa Flamenca (MeteOrihuela), Puçol - Ciutat Jardí (Soci), Alzira - La Casella (Soci) - - -